Time;durP1;ratioP1;P1;durP2;ratioP2;P2;SDS_P1;SDS_P2;PMS_P1;PMS_P2;Temp;Humidity;BMP_temperature;BMP_pressure;BME280_temperature;BME280_humidity;BME280_pressure;Samples;Min_cycle;Max_cycle;Signal;HPM_P1;HPM_P2
2023/08/11 04:22:12;;;;;;;;;;;18.90;66.30;;;18.27;61.05;96701.84;4306519;32;20064;-87
2023/08/11 04:24:41;;;;;;;;;;;19.00;66.90;;;18.27;60.71;96704.63;5036110;28;34542;-87
2023/08/11 10:16:04;;;;;;;;;;;20.90;66.60;;;20.18;60.73;96719.59;4942160;29;19927;-86
2023/08/11 10:30:27;;;;;;;;;;;20.80;66.70;;;20.10;60.84;96720.34;4896739;29;19928;-86
2023/08/11 10:37:13;;;;;;;;;;;20.70;67.00;;;20.05;61.32;96709.41;4883264;29;20630;-86
2023/08/11 10:44:18;;;;;;;;;;;20.70;67.20;;;20.00;61.37;96702.03;4874918;29;20326;-86
2023/08/11 10:47:26;;;;;;;;;;;20.70;67.20;;;19.99;61.36;96699.56;4888293;29;19928;-86
2023/08/11 10:50:36;;;;;;;;;;;20.70;67.30;;;19.96;61.42;96695.47;4886790;29;20291;-86
2023/08/11 11:02:20;;;;;;;;;;;20.60;67.40;;;19.96;61.19;96695.47;4827665;29;19927;-86
2023/08/11 11:05:25;;;;;;;;;;;20.60;67.50;;;19.97;61.22;96687.94;4880217;29;19928;-86
2023/08/11 11:09:02;;;;;;;;;;;20.60;67.30;;;19.95;61.44;96690.19;4888082;29;19950;-86
2023/08/11 11:11:48;;;;;;;;;;;20.60;67.30;;;19.93;61.16;96693.31;4889158;29;19938;-86
2023/08/11 11:18:11;;;;;;;;;;;;;;;;;;;;;
2023/08/11 11:21:11;;;;;;;;;;;20.60;67.50;;;19.95;61.40;96698.53;4918775;29;19927;-86
2023/08/11 11:27:03;;;;;;;;;;;20.60;67.50;;;19.95;61.40;96688.25;4891758;29;19927;-86
2023/08/11 11:30:33;;;;;;;;;;;20.60;67.50;;;19.97;61.33;96696.28;4904983;29;19927;-86
2023/08/11 11:33:17;;;;;;;;;;;20.60;67.40;;;19.96;61.25;96681.56;4889264;29;19931;-86
2023/08/11 11:36:28;;;;;;;;;;;20.60;67.30;;;19.99;61.18;96688.44;4904632;29;19927;-86
2023/08/11 11:39:19;;;;;;;;;;;20.60;67.20;;;19.95;61.29;96688.25;4904895;29;19927;-86
2023/08/11 11:42:07;;;;;;;;;;;;;;;;;;;;;
2023/08/11 11:48:36;;;;;;;;;;;20.60;67.30;;;19.94;61.35;96694.97;4905022;29;19935;-86
2023/08/11 11:52:27;;;;;;;;;;;;;;;;;;;;;
2023/08/11 11:55:37;;;;;;;;;;;20.60;67.40;;;19.92;61.23;96681.41;4904726;29;19928;-86
2023/08/11 12:01:56;;;;;;;;;;;20.60;67.40;;;19.91;61.45;96693.66;4905774;29;19927;-86
2023/08/11 12:11:25;;;;;;;;;;;20.50;67.60;;;19.90;61.74;96688.38;4838165;29;19950;-87
2023/08/11 12:15:02;;;;;;;;;;;;;;;;;;;;;
2023/08/11 12:18:03;;;;;;;;;;;20.50;68.60;;;19.91;61.49;96690.88;4795681;29;20455;-86
2023/08/11 12:21:00;;;;;;;;;;;20.50;67.60;;;19.88;61.67;96683.16;4886585;29;20849;-86
2023/08/11 12:28:01;;;;;;;;;;;;;;;;;;;;;
2023/08/11 12:31:04;;;;;;;;;;;;;;;;;;;;;
2023/08/11 12:34:07;;;;;;;;;;;20.50;67.80;;;19.83;61.63;96672.16;4888947;29;19927;-86
2023/08/11 12:37:26;;;;;;;;;;;20.50;67.90;;;19.84;61.67;96673.78;4894217;29;19950;-86
2023/08/11 12:40:00;;;;;;;;;;;20.50;67.90;;;19.84;61.62;96670.19;4904007;29;19935;-86
2023/08/11 12:49:26;;;;;;;;;;;20.50;67.80;;;19.87;61.43;96664.84;4865818;29;19935;-86
2023/08/11 12:52:03;;;;;;;;;;;20.50;67.70;;;19.87;61.72;96659.28;4885062;29;19935;-86
2023/08/11 12:54:40;;;;;;;;;;;20.50;67.70;;;19.89;61.73;96657.03;4869880;29;19931;-86
2023/08/11 12:57:13;;;;;;;;;;;20.50;67.70;;;19.90;61.56;96663.38;4885275;29;19928;-86
2023/08/11 13:00:03;;;;;;;;;;;;;;;;;;;;;
2023/08/11 13:03:12;;;;;;;;;;;20.50;67.70;;;19.89;61.62;96667.28;4869754;29;20391;-86
2023/08/11 13:05:53;;;;;;;;;;;20.60;67.60;;;19.89;61.46;96658.97;4885544;29;20410;-86
2023/08/11 13:08:34;;;;;;;;;;;20.50;67.60;;;19.93;61.47;96668.31;4884129;29;19935;-86
2023/08/11 13:11:07;;;;;;;;;;;20.60;67.60;;;19.91;61.51;96665.84;4885133;29;19928;-87
2023/08/11 13:13:56;;;;;;;;;;;20.60;67.60;;;19.89;61.63;96659.78;4869554;29;19928;-86
2023/08/11 13:17:07;;;;;;;;;;;20.60;67.60;;;19.91;61.50;96670.59;4885111;29;20415;-86
2023/08/11 13:19:40;;;;;;;;;;;20.60;67.60;;;19.89;61.35;96662.56;4874166;29;19927;-86
2023/08/11 13:22:56;;;;;;;;;;;20.60;67.50;;;19.92;61.47;96669.44;4888802;29;19935;-86
2023/08/11 13:25:49;;;;;;;;;;;20.60;67.50;;;19.92;61.71;96664.72;4872710;29;19927;-86
2023/08/11 13:31:58;;;;;;;;;;;20.60;67.40;;;19.91;61.21;96657.53;4887650;29;19928;-86
2023/08/11 13:37:58;;;;;;;;;;;20.60;67.40;;;19.93;61.40;96657.19;4887801;29;19931;-86
2023/08/11 13:40:47;;;;;;;;;;;20.60;67.50;;;19.92;61.33;96653.59;4888074;29;19927;-86
2023/08/11 13:43:58;;;;;;;;;;;20.60;67.40;;;19.91;61.39;96660.31;4904499;29;19943;-87
2023/08/11 13:47:10;;;;;;;;;;;;;;;;;;;;;
2023/08/11 13:50:05;;;;;;;;;;;20.60;67.30;;;19.95;61.44;96667.97;4892162;29;19963;-86
2023/08/11 13:52:54;;;;;;;;;;;20.60;67.40;;;19.93;61.46;96662.75;4905259;29;20565;-86
2023/08/11 13:59:27;;;;;;;;;;;20.60;67.40;;;19.95;61.31;96662.41;4783643;29;19929;-86
2023/08/11 14:02:32;;;;;;;;;;;20.60;67.40;;;19.92;61.16;96661.94;4840200;29;19943;-86
2023/08/11 14:05:39;;;;;;;;;;;20.60;67.40;;;19.92;61.44;96659.16;4868741;29;19928;-86
2023/08/11 14:11:16;;;;;;;;;;;20.60;67.30;;;19.95;61.31;96666.03;4863507;29;19934;-87
2023/08/11 14:13:49;;;;;;;;;;;20.60;67.30;;;19.97;61.26;96665.69;4884094;29;20327;-86
2023/08/11 14:16:33;;;;;;;;;;;20.60;67.30;;;19.95;61.24;96665.19;4868826;29;19928;-87
2023/08/11 14:19:14;;;;;;;;;;;20.60;67.30;;;19.93;61.36;96663.59;4854118;29;19935;-87
2023/08/11 14:25:03;;;;;;;;;;;20.60;67.20;;;19.94;61.46;96667.16;4853253;29;19951;-87
2023/08/11 14:27:55;;;;;;;;;;;;;;;;;;;;;
2023/08/11 14:31:03;;;;;;;;;;;20.60;67.30;;;19.91;61.56;96665.03;4853756;29;19935;-87
2023/08/11 14:34:09;;;;;;;;;;;20.60;67.30;;;19.90;61.49;96658.66;4883742;29;19954;-86
2023/08/11 14:37:05;;;;;;;;;;;20.60;67.40;;;19.91;61.42;96663.06;4862781;29;19937;-86
2023/08/11 14:39:58;;;;;;;;;;;20.60;67.40;;;19.91;61.43;96662.25;4868490;29;19954;-86
2023/08/11 14:42:34;;;;;;;;;;;20.60;67.30;;;19.90;61.41;96653.09;4852551;29;19947;-86
2023/08/11 14:45:21;;;;;;;;;;;20.60;67.30;;;19.91;61.42;96659.47;4898058;29;20399;-86
2023/08/11 14:48:24;;;;;;;;;;;;;;;;;;;;;
2023/08/11 14:51:24;;;;;;;;;;;20.60;67.40;;;19.95;61.35;96659.63;4880734;29;20383;-86
2023/08/11 14:54:26;;;;;;;;;;;;;;;;;;;;;
2023/08/11 14:57:00;;;;;;;;;;;20.60;67.30;;;19.95;61.23;96654.09;4868250;29;19928;-86
2023/08/11 15:00:27;;;;;;;;;;;20.60;67.20;;;19.94;61.18;96653.28;4884204;29;19939;-86
2023/08/11 15:03:01;;;;;;;;;;;20.60;67.20;;;19.92;61.30;96650.00;4839895;29;20296;-86
2023/08/11 15:05:32;;;;;;;;;;;20.60;67.20;;;19.94;61.05;96658.84;4883449;29;19934;-87
2023/08/11 15:08:41;;;;;;;;;;;20.60;67.20;;;19.91;61.31;96654.75;4896922;29;19935;-86
2023/08/11 15:11:19;;;;;;;;;;;20.60;67.30;;;19.93;61.37;96646.06;4850874;29;19928;-86
2023/08/11 15:13:56;;;;;;;;;;;20.60;67.30;;;19.92;61.21;96656.38;4859557;29;19928;-86
2023/08/11 15:16:39;;;;;;;;;;;;;;;;;;;;;
2023/08/11 15:19:28;;;;;;;;;;;20.60;67.20;;;19.93;61.45;96652.47;4852279;29;19927;-86
2023/08/11 15:22:06;;;;;;;;;;;20.60;67.30;;;19.92;61.47;96653.59;4868490;29;20409;-86
2023/08/11 15:24:46;;;;;;;;;;;20.60;67.20;;;19.91;61.44;96659.47;4867698;29;19935;-86
2023/08/11 15:27:36;;;;;;;;;;;;;;;;;;;;;
2023/08/11 15:30:27;;;;;;;;;;;20.60;67.20;;;19.93;61.10;96671.91;4867733;29;19935;-86
2023/08/11 15:33:03;;;;;;;;;;;20.60;67.20;;;19.92;61.26;96678.63;4867828;29;20005;-86
2023/08/11 15:35:48;;;;;;;;;;;20.60;67.30;;;19.92;61.37;96677.78;4868587;29;19928;-86
2023/08/11 15:38:44;;;;;;;;;;;;;;;;;;;;;
2023/08/11 15:41:40;;;;;;;;;;;20.60;67.30;;;19.89;61.29;96679.25;4866861;29;20040;-86
2023/08/11 15:44:33;;;;;;;;;;;20.60;67.30;;;19.90;61.51;96692.00;4867295;29;19935;-86
2023/08/11 15:47:26;;;;;;;;;;;20.60;67.40;;;19.92;61.48;96688.91;4869028;29;19928;-86
2023/08/11 15:50:32;;;;;;;;;;;20.60;67.50;;;19.90;61.26;96685.59;4867362;29;19931;-86
2023/08/11 15:53:14;;;;;;;;;;;20.60;67.40;;;19.90;61.43;96697.56;4867652;29;19927;-86
2023/08/11 15:55:54;;;;;;;;;;;20.60;67.40;;;19.88;61.45;96697.06;4867274;29;20310;-86
2023/08/11 15:59:10;;;;;;;;;;;;;;;;;;;;;
2023/08/11 16:01:42;;;;;;;;;;;20.50;67.50;;;19.87;61.59;96703.75;4867267;29;20306;-86
2023/08/11 16:04:40;;;;;;;;;;;20.50;67.50;;;19.86;61.50;96706.81;4867527;29;20560;-86
2023/08/11 16:07:15;;;;;;;;;;;20.50;67.60;;;19.85;61.72;96710.75;4866970;29;19927;-86
2023/08/11 16:14:57;;;;;;;;;;;20.50;67.60;;;19.80;61.61;96713.63;4806423;29;19940;-87
2023/08/11 17:13:37;;;;;;;;;;;20.40;67.80;;;19.70;61.71;96723.06;4903104;29;20310;-86
2023/08/11 17:16:42;;;;;;;;;;;20.40;67.80;;;19.71;61.86;96721.91;4828379;29;19972;-86
2023/08/11 17:19:47;;;;;;;;;;;20.40;67.80;;;19.70;61.56;96723.88;4895215;29;21601;-86
2023/08/11 17:30:23;;;;;;;;;;;20.40;67.90;;;19.71;61.64;96735.81;4852672;29;19934;-86
2023/08/11 17:39:42;;;;;;;;;;;;;;;;;;;;;
2023/08/11 17:42:54;;;;;;;;;;;;;;;;;;;;;
2023/08/11 17:52:38;;;;;;;;;;;;;;;;;;;;;
2023/08/11 17:56:18;;;;;;;;;;;;;;;;;;;;;
2023/08/11 18:36:54;;;;;;;;;;;20.20;69.60;;;19.55;63.53;96802.03;4745048;29;19933;-86
2023/08/11 18:39:52;;;;;;;;;;;20.20;69.80;;;19.55;63.92;96808.44;4793809;29;19941;-86
2023/08/11 18:49:36;;;;;;;;;;;20.20;70.30;;;19.50;63.74;96811.31;4800678;29;20534;-86
2023/08/11 18:52:53;;;;;;;;;;;;;;;;;;;;;
2023/08/11 18:56:38;;;;;;;;;;;;;;;;;;;;;
2023/08/11 18:59:38;;;;;;;;;;;;;;;;;;;;;
2023/08/11 19:03:29;;;;;;;;;;;;;;;;;;;;;
2023/08/11 19:18:16;;;;;;;;;;;;;;;;;;;;;
2023/08/11 19:42:02;;;;;;;;;;;;;;;;;;;;;
2023/08/11 19:45:37;;;;;;;;;;;;;;;;;;;;;
2023/08/11 23:31:34;;;;;;;;;;;19.90;71.30;;;19.24;64.72;96828.56;1200970;23;20202;-92
